Portada
METAR-TAF:

METAR-TAF

Aeroports :

Zhengzhou, Xina

latitud: 34-43N, longitud: 113-39E, altitud: 111 m

Observació

L'informe es va fer fa 36 minuts, a les 16:00 UTC
Vent 2 kt del Oest
Temperatura 0°C
Humitat 86%
Pressió 1024 hPa
Visibilitat: 3000 m
boirina

METAR: ZHCC 211600Z 26001MPS 3000 BR NSC 00/M02 Q1024 BECMG TL1640 2500

Hora: 00:36 (16:36 UTC)

Pronòstic

L'informe es va fer fa 7 hores i 23 minuts, a les 09:13 UTC
Pronòstic vàlid del 21 a les 12 UTC al 22 a les 12 UTC
Vent 6 kt del Nord/Nord-Est
Visibilitat: 2500 m
boirina
Temporalment
l' 21 a les 20 UTC al 22 a les 02 UTC
Visibilitat: 1000 m

TAF: ZHCC 210913Z 2112/2212 03003MPS 2500 BR NSC TX07/2207Z TNM02/2122Z TEMPO 2120/2202 1000

Observacions i pronòstics meteorològics de més de 4000 aeroports (METAR i TAF).

Les estacions disponibles són els punts grocs i vermells al mapa.

Posi el ratolí al punt desitjat per veure el nom de l'estació.

Feu clic per veure les observacions i els pronòstics meteorològics.

Per canviar el mapa: feu clic els botons verds amb una creu de color negre per apropar; al botó verd amb un guió per allunyar la imatge; o en les fletxes verdes per a mapes adjacents.


METAR-TAF: